Nord Imagination — 3FIA8 — position and weather

sailwx.info

Track history (hours):
 
Tides and Currents Weather Stations Pressure Air Temp Water Temp Dewpoint Dewpoint Depression Visibility Wind Speed Wind Dir Waves Ship Positions

Nord Imagination

Last reported at 2016-Jul-13 22:29 UTC. Time now 2016-Jul-30 01:53 UTC.
Position N 09°07' W 079°46'.
Warning: this ship's position is 16 days out of date.

Length 173 m; draft 10.9 m.

Type: Ship (hazmat cat B). MMSI: 354828000.

Date/timePositionNaut miles runAvg speedWind from/ knotsBaromVisibWave heightAir tempDewpointWater temp
2016-Jul-13 22:29N 09°07' W 079°46'910.2
2016-Jul-13 21:33N 09°12' W 079°54'3 2.3
2016-Jul-13 20:21N 09°14' W 079°56'0 0.0
2016-Jul-13 19:32N 09°14' W 079°56'0 0.0
2016-Jul-13 18:20N 09°14' W 079°56'0 0.0
2016-Jul-13 17:06N 09°14' W 079°56'0 0.0
2016-Jul-13 16:30N 09°14' W 079°56'0 0.0
2016-Jul-13 15:27N 09°14' W 079°56'0 0.0
2016-Jul-13 14:33N 09°14' W 079°56'0 0.0
2016-Jul-13 13:33N 09°14' W 079°56'0 0.0
2016-Jul-13 12:27N 09°14' W 079°56'0 0.0
2016-Jul-13 11:21N 09°14' W 079°56'0 0.0
2016-Jul-13 09:33N 09°14' W 079°56'0 0.1
2016-Jul-13 08:32N 09°14' W 079°56'0 0.0
2016-Jul-13 07:31N 09°14' W 079°56'2 2.4
2016-Jul-13 06:33N 09°16' W 079°55'0 0.3
2016-Jul-13 05:33N 09°17' W 079°55'1 1.3
2016-Jul-13 04:32N 09°18' W 079°55'7 7.1
2016-Jul-13 03:33N 09°25' W 079°55'3 3.1
2016-Jul-13 02:32N 09°28' W 079°57'0 0.1
2016-Jul-13 01:32N 09°28' W 079°57'0 0.0
2016-Jul-13 00:25N 09°28' W 079°57'0 0.0
2016-Jul-12 23:32N 09°28' W 079°57'0 0.0
2016-Jul-12 22:29N 09°28' W 079°57'0 0.0
2016-Jul-12 21:32N 09°28' W 079°57'0 0.0
2016-Jul-12 20:29N 09°28' W 079°57'0 0.0
2016-Jul-12 19:32N 09°28' W 079°57'0 0.0
2016-Jul-12 18:33N 09°28' W 079°57'0 0.0
2016-Jul-12 17:33N 09°28' W 079°57'0 0.0
2016-Jul-12 16:32N 09°28' W 079°57'0 0.0
2016-Jul-12 15:32N 09°28' W 079°57'0 0.0
2016-Jul-12 14:32N 09°28' W 079°57'0 0.0
2016-Jul-12 13:33N 09°28' W 079°57'0 0.0
2016-Jul-12 12:29N 09°28' W 079°57'0 0.0
2016-Jul-12 11:32N 09°28' W 079°57'0 0.0
2016-Jul-12 10:32N 09°28' W 079°57'0 0.0
2016-Jul-12 09:32N 09°28' W 079°57'0 0.0
2016-Jul-12 08:32N 09°28' W 079°57'0 0.0
2016-Jul-12 07:32N 09°28' W 079°57'0 0.0
2016-Jul-12 06:33N 09°28' W 079°57'0 0.0
2016-Jul-12 05:26N 09°28' W 079°57'0 0.0
2016-Jul-12 04:27N 09°28' W 079°57'0 0.0
2016-Jul-12 03:32N 09°28' W 079°57'0 0.0
2016-Jul-12 02:32N 09°28' W 079°57'0 0.0
2016-Jul-12 01:26N 09°28' W 079°57'0 0.0
2016-Jul-12 00:29N 09°28' W 079°57'0 0.0
2016-Jul-11 23:29N 09°28' W 079°57'0 0.0
2016-Jul-11 22:32N 09°28' W 079°57'0 0.0
2016-Jul-11 21:33N 09°28' W 079°57'0 0.0
2016-Jul-11 20:33N 09°28' W 079°57'0 0.3
2016-Jul-11 19:33N 09°28' W 079°56'4 3.7
2016-Jul-11 18:34N 09°30' W 079°54'1010.2
2016-Jul-11 17:33N 09°41' W 079°53'1413.5
2016-Jul-11 16:32N 09°54' W 079°53'  
2016-Jul-06 16:32N 29°29' W 094°51'1010.0
2016-Jul-06 15:33N 29°37' W 094°57'8 8.1
2016-Jul-06 14:33N 29°44' W 095°02'5 5.2
2016-Jul-06 13:33N 29°44' W 095°08'0 0.0
2016-Jul-04 13:28N 29°44' W 095°08'2 2.6
2016-Jul-04 12:33N 29°45' W 095°06'7 6.8
2016-Jul-04 11:33N 29°41' W 094°59'1211.5
2016-Jul-04 10:33N 29°31' W 094°53'  
Track history (hours):
 
Tides and Currents Weather Stations Pressure Air Temp Water Temp Dewpoint Dewpoint Depression Visibility Wind Speed Wind Dir Waves Ship Positions

Nord Imagination

Last reported at 2016-Jul-13 22:29 UTC. Time now 2016-Jul-30 01:53 UTC.
Position N 09°07' W 079°46'.
Warning: this ship's position is 16 days out of date.

Length 173 m; draft 10.9 m.

Type: Ship (hazmat cat B). MMSI: 354828000.

Date/timePositionNaut miles runAvg speedWind from/ knotsBaromVisibWave heightAir tempDewpointWater temp
2016-Jul-13 22:29N 09°07' W 079°46'910.2
2016-Jul-13 21:33N 09°12' W 079°54'3 2.3
2016-Jul-13 20:21N 09°14' W 079°56'0 0.0
2016-Jul-13 19:32N 09°14' W 079°56'0 0.0
2016-Jul-13 18:20N 09°14' W 079°56'0 0.0
2016-Jul-13 17:06N 09°14' W 079°56'0 0.0
2016-Jul-13 16:30N 09°14' W 079°56'0 0.0
2016-Jul-13 15:27N 09°14' W 079°56'0 0.0
2016-Jul-13 14:33N 09°14' W 079°56'0 0.0
2016-Jul-13 13:33N 09°14' W 079°56'0 0.0
2016-Jul-13 12:27N 09°14' W 079°56'0 0.0
2016-Jul-13 11:21N 09°14' W 079°56'0 0.0
2016-Jul-13 09:33N 09°14' W 079°56'0 0.1
2016-Jul-13 08:32N 09°14' W 079°56'0 0.0
2016-Jul-13 07:31N 09°14' W 079°56'2 2.4
2016-Jul-13 06:33N 09°16' W 079°55'0 0.3
2016-Jul-13 05:33N 09°17' W 079°55'1 1.3
2016-Jul-13 04:32N 09°18' W 079°55'7 7.1
2016-Jul-13 03:33N 09°25' W 079°55'3 3.1
2016-Jul-13 02:32N 09°28' W 079°57'0 0.1
2016-Jul-13 01:32N 09°28' W 079°57'0 0.0
2016-Jul-13 00:25N 09°28' W 079°57'0 0.0
2016-Jul-12 23:32N 09°28' W 079°57'0 0.0
2016-Jul-12 22:29N 09°28' W 079°57'0 0.0
2016-Jul-12 21:32N 09°28' W 079°57'0 0.0
2016-Jul-12 20:29N 09°28' W 079°57'0 0.0
2016-Jul-12 19:32N 09°28' W 079°57'0 0.0
2016-Jul-12 18:33N 09°28' W 079°57'0 0.0
2016-Jul-12 17:33N 09°28' W 079°57'0 0.0
2016-Jul-12 16:32N 09°28' W 079°57'0 0.0
2016-Jul-12 15:32N 09°28' W 079°57'0 0.0
2016-Jul-12 14:32N 09°28' W 079°57'0 0.0
2016-Jul-12 13:33N 09°28' W 079°57'0 0.0
2016-Jul-12 12:29N 09°28' W 079°57'0 0.0
2016-Jul-12 11:32N 09°28' W 079°57'0 0.0
2016-Jul-12 10:32N 09°28' W 079°57'0 0.0
2016-Jul-12 09:32N 09°28' W 079°57'0 0.0
2016-Jul-12 08:32N 09°28' W 079°57'0 0.0
2016-Jul-12 07:32N 09°28' W 079°57'0 0.0
2016-Jul-12 06:33N 09°28' W 079°57'0 0.0
2016-Jul-12 05:26N 09°28' W 079°57'0 0.0
2016-Jul-12 04:27N 09°28' W 079°57'0 0.0
2016-Jul-12 03:32N 09°28' W 079°57'0 0.0
2016-Jul-12 02:32N 09°28' W 079°57'0 0.0
2016-Jul-12 01:26N 09°28' W 079°57'0 0.0
2016-Jul-12 00:29N 09°28' W 079°57'0 0.0
2016-Jul-11 23:29N 09°28' W 079°57'0 0.0
2016-Jul-11 22:32N 09°28' W 079°57'0 0.0
2016-Jul-11 21:33N 09°28' W 079°57'0 0.0
2016-Jul-11 20:33N 09°28' W 079°57'0 0.3
2016-Jul-11 19:33N 09°28' W 079°56'4 3.7
2016-Jul-11 18:34N 09°30' W 079°54'1010.2
2016-Jul-11 17:33N 09°41' W 079°53'1413.5
2016-Jul-11 16:32N 09°54' W 079°53'  
2016-Jul-06 16:32N 29°29' W 094°51'1010.0
2016-Jul-06 15:33N 29°37' W 094°57'8 8.1
2016-Jul-06 14:33N 29°44' W 095°02'5 5.2
2016-Jul-06 13:33N 29°44' W 095°08'0 0.0
2016-Jul-04 13:28N 29°44' W 095°08'2 2.6
2016-Jul-04 12:33N 29°45' W 095°06'7 6.8
2016-Jul-04 11:33N 29°41' W 094°59'1211.5
2016-Jul-04 10:33N 29°31' W 094°53'  

Dump ship's entire track history